Time;durP1;ratioP1;P1;durP2;ratioP2;P2;SDS_P1;SDS_P2;PMS_P1;PMS_P2;Temp;Humidity;BMP_temperature;BMP_pressure;BME280_temperature;BME280_humidity;BME280_pressure;Samples;Min_cycle;Max_cycle;Signal;HPM_P1;HPM_P2
2022/01/05 00:01:09;;;;;;;6.90;2.13;;;5.10;96.80;;;;;;5014607;28;20186;-73
2022/01/05 00:03:35;;;;;;;3.33;2.17;;;5.00;97.00;;;;;;5012285;28;20205;-74
2022/01/05 00:06:02;;;;;;;1.90;1.00;;;5.00;97.00;;;;;;5012881;28;20472;-74
2022/01/05 00:08:27;;;;;;;5.40;1.60;;;4.90;97.00;;;;;;5013202;28;20481;-73
2022/01/05 00:10:53;;;;;;;2.40;1.17;;;4.80;96.90;;;;;;5014722;28;20414;-73
2022/01/05 00:13:19;;;;;;;2.40;2.07;;;4.80;97.10;;;;;;5012645;28;20509;-73
2022/01/05 00:15:45;;;;;;;4.70;1.33;;;4.80;97.10;;;;;;5014274;28;20413;-73
2022/01/05 00:18:11;;;;;;;4.33;1.80;;;4.70;96.90;;;;;;5014715;28;20429;-74
2022/01/05 00:20:36;;;;;;;2.23;1.80;;;4.60;97.10;;;;;;5013027;28;20245;-74
2022/01/05 00:23:02;;;;;;;3.47;1.77;;;4.60;97.20;;;;;;5028086;28;20234;-74
2022/01/05 00:25:28;;;;;;;3.83;1.40;;;4.60;97.10;;;;;;5012302;28;20238;-73
2022/01/05 00:27:53;;;;;;;3.00;1.30;;;4.60;97.00;;;;;;5015363;28;20195;-75
2022/01/05 00:30:22;;;;;;;3.07;1.10;;;4.50;96.80;;;;;;5011716;28;20247;-75
2022/01/05 00:32:47;;;;;;;2.70;1.27;;;4.40;96.90;;;;;;5015516;28;20414;-74
2022/01/05 00:35:13;;;;;;;4.43;1.43;;;4.40;96.90;;;;;;5017204;28;20174;-73
2022/01/05 00:37:39;;;;;;;1.30;1.20;;;4.40;96.90;;;;;;5021265;28;20632;-73
2022/01/05 00:40:06;;;;;;;3.27;1.83;;;4.40;97.00;;;;;;5013510;28;20231;-73
2022/01/05 00:42:32;;;;;;;2.13;1.23;;;4.30;97.10;;;;;;5013885;28;20717;-74
2022/01/05 00:44:58;;;;;;;4.10;1.10;;;4.30;97.20;;;;;;5027923;28;20437;-74
2022/01/05 00:47:24;;;;;;;7.87;1.90;;;4.30;97.00;;;;;;5013067;28;20465;-74
2022/01/05 00:49:50;;;;;;;5.00;1.47;;;4.30;97.00;;;;;;5011932;28;20427;-74
2022/01/05 00:52:16;;;;;;;4.87;1.43;;;4.20;97.10;;;;;;5016181;28;20170;-74
2022/01/05 00:54:41;;;;;;;2.77;1.10;;;4.20;97.10;;;;;;5017417;28;20589;-74
2022/01/05 00:57:07;;;;;;;3.70;1.50;;;4.20;97.20;;;;;;5018220;28;20175;-74
2022/01/05 00:59:33;;;;;;;3.50;1.50;;;4.20;97.10;;;;;;5017827;28;20225;-73
2022/01/05 01:01:59;;;;;;;9.83;1.63;;;4.20;97.40;;;;;;5017181;28;20414;-73
2022/01/05 01:04:25;;;;;;;6.37;1.30;;;4.10;97.40;;;;;;5034602;28;20186;-74
2022/01/05 01:06:50;;;;;;;3.13;1.33;;;4.10;97.30;;;;;;5033950;28;20292;-73
2022/01/05 01:09:16;;;;;;;5.80;1.20;;;4.10;97.30;;;;;;5017805;28;20194;-72
2022/01/05 01:11:42;;;;;;;1.50;1.00;;;4.10;97.40;;;;;;5017537;28;20183;-76
2022/01/05 01:14:08;;;;;;;3.93;1.53;;;4.10;97.60;;;;;;5017356;28;20663;-73
2022/01/05 01:16:34;;;;;;;2.63;1.17;;;4.10;97.60;;;;;;5015993;28;20167;-73
2022/01/05 01:18:59;;;;;;;2.80;1.53;;;4.00;97.60;;;;;;5016793;28;20199;-74
2022/01/05 01:21:25;;;;;;;3.70;1.47;;;4.00;97.70;;;;;;5015838;28;20428;-74
2022/01/05 01:23:57;;;;;;;2.70;1.23;;;4.00;97.90;;;;;;5016059;28;20164;-73
2022/01/05 01:26:27;;;;;;;2.83;1.60;;;4.10;97.80;;;;;;5016488;28;20532;-74
2022/01/05 01:28:54;;;;;;;3.60;1.50;;;4.00;97.90;;;;;;5017190;28;20437;-74
2022/01/05 01:31:20;;;;;;;2.93;1.33;;;4.00;98.00;;;;;;5016434;28;20405;-73
2022/01/05 01:33:46;;;;;;;2.70;1.27;;;4.00;98.00;;;;;;5016525;28;20398;-74
2022/01/05 01:36:12;;;;;;;6.80;1.83;;;4.00;98.10;;;;;;5015858;28;20178;-74
2022/01/05 01:38:38;;;;;;;4.27;1.80;;;4.10;98.30;;;;;;5016738;28;20854;-74
2022/01/05 01:41:04;;;;;;;3.70;1.70;;;4.00;98.20;;;;;;5016823;28;20545;-73
2022/01/05 01:43:30;;;;;;;3.60;1.70;;;4.00;98.30;;;;;;5015857;28;20209;-73
2022/01/05 01:45:55;;;;;;;5.93;2.10;;;4.00;98.30;;;;;;5016588;28;20438;-74
2022/01/05 01:48:21;;;;;;;9.87;4.93;;;4.10;98.70;;;;;;5016460;28;20828;-75
2022/01/05 01:50:47;;;;;;;5.80;2.40;;;4.10;98.70;;;;;;5017305;28;20222;-74
2022/01/05 01:53:13;;;;;;;5.33;2.90;;;4.10;98.70;;;;;;5016223;28;20642;-74
2022/01/05 01:55:39;;;;;;;3.57;2.10;;;4.20;98.70;;;;;;5016182;28;20172;-74
2022/01/05 01:58:07;;;;;;;4.90;3.20;;;4.20;98.50;;;;;;5016208;28;20191;-74
2022/01/05 02:00:32;;;;;;;6.00;3.40;;;4.20;98.40;;;;;;5017049;28;20525;-74
2022/01/05 02:02:58;;;;;;;4.47;2.70;;;4.20;98.40;;;;;;5014788;28;20430;-74
2022/01/05 02:05:24;;;;;;;5.10;2.50;;;4.10;98.50;;;;;;5020084;28;20164;-74
2022/01/05 02:07:50;;;;;;;9.43;3.10;;;4.10;98.40;;;;;;5020353;28;20676;-74
2022/01/05 02:10:17;;;;;;;5.67;2.50;;;4.10;98.60;;;;;;5021095;28;20437;-74
2022/01/05 02:12:43;;;;;;;4.40;2.60;;;4.00;98.60;;;;;;5016767;28;20426;-74
2022/01/05 02:15:10;;;;;;;4.93;2.47;;;4.00;98.50;;;;;;5016439;28;20418;-74
2022/01/05 02:17:47;;;;;;;5.27;2.53;;;4.00;98.80;;;;;;5014270;28;20504;-74
2022/01/05 02:20:24;;;;;;;4.47;2.00;;;3.90;98.80;;;;;;5016934;28;20794;-74
2022/01/05 02:22:50;;;;;;;13.13;3.60;;;3.90;98.80;;;;;;5017140;28;20402;-73
2022/01/05 02:25:16;;;;;;;4.77;3.20;;;3.90;98.70;;;;;;5015717;28;20416;-75
2022/01/05 02:27:44;;;;;;;12.23;3.43;;;3.80;98.90;;;;;;5016303;28;20826;-75
2022/01/05 02:30:12;;;;;;;13.53;3.67;;;3.80;98.90;;;;;;5015839;28;20818;-74
2022/01/05 02:32:38;;;;;;;12.27;4.03;;;3.80;99.00;;;;;;5016146;28;20521;-74
2022/01/05 02:35:05;;;;;;;8.27;3.70;;;3.70;99.00;;;;;;5015709;28;20445;-74
2022/01/05 02:37:30;;;;;;;10.17;4.17;;;3.70;99.10;;;;;;5014134;28;20481;-74
2022/01/05 02:39:56;;;;;;;12.70;3.80;;;3.60;99.40;;;;;;5015339;28;20854;-74
2022/01/05 02:42:27;;;;;;;9.77;3.17;;;3.60;99.20;;;;;;5015858;28;20163;-74
2022/01/05 02:44:52;;;;;;;9.77;4.77;;;3.50;99.30;;;;;;5014886;28;20522;-74
2022/01/05 02:47:18;;;;;;;10.27;5.10;;;3.50;99.60;;;;;;5013636;28;20469;-75
2022/01/05 02:49:44;;;;;;;23.37;5.50;;;3.50;99.70;;;;;;5014779;28;20179;-74
2022/01/05 02:52:09;;;;;;;13.30;4.87;;;3.50;99.70;;;;;;5016034;28;20163;-74
2022/01/05 02:54:35;;;;;;;5.80;3.70;;;3.40;99.60;;;;;;5014340;28;20175;-74
2022/01/05 02:57:00;;;;;;;5.93;3.93;;;3.40;99.70;;;;;;5015923;28;20167;-74
2022/01/05 02:59:27;;;;;;;9.13;4.13;;;3.40;99.80;;;;;;5015268;28;20233;-74
2022/01/05 03:01:52;;;;;;;10.20;3.73;;;3.30;99.80;;;;;;5016192;28;20173;-74
2022/01/05 03:04:18;;;;;;;6.90;3.33;;;3.30;99.80;;;;;;5014767;28;20442;-74
2022/01/05 03:06:44;;;;;;;6.73;3.10;;;3.30;99.80;;;;;;5015338;28;20206;-74
2022/01/05 03:09:10;;;;;;;5.77;3.07;;;3.30;99.90;;;;;;5014251;28;20210;-74
2022/01/05 03:11:36;;;;;;;7.47;3.50;;;3.20;99.80;;;;;;5014032;28;20896;-73
2022/01/05 03:14:01;;;;;;;12.90;3.17;;;3.20;99.90;;;;;;5013202;28;20171;-73
2022/01/05 03:16:27;;;;;;;12.83;3.50;;;3.20;99.80;;;;;;5014142;28;20171;-75
2022/01/05 03:18:52;;;;;;;12.37;3.70;;;3.20;99.90;;;;;;5013037;28;20206;-74
2022/01/05 03:21:18;;;;;;;8.97;2.80;;;3.20;99.90;;;;;;5014503;28;20168;-74
2022/01/05 03:23:46;;;;;;;7.97;2.97;;;3.10;99.80;;;;;;5014808;28;20168;-73
2022/01/05 03:26:12;;;;;;;4.03;2.53;;;3.10;99.80;;;;;;5014526;28;20171;-72
2022/01/05 03:28:38;;;;;;;10.67;3.20;;;3.10;99.70;;;;;;5029213;28;20469;-74
2022/01/05 03:31:04;;;;;;;6.10;2.87;;;3.10;99.60;;;;;;5012296;28;20760;-74
2022/01/05 03:33:30;;;;;;;6.63;2.43;;;3.10;99.60;;;;;;5014220;28;20171;-74
2022/01/05 03:35:55;;;;;;;8.03;3.40;;;3.00;99.60;;;;;;5013706;28;20422;-75
2022/01/05 03:38:21;;;;;;;10.47;3.20;;;3.00;99.70;;;;;;5013875;28;20218;-75
2022/01/05 03:40:48;;;;;;;7.53;2.47;;;3.00;99.70;;;;;;5014400;28;20580;-75
2022/01/05 03:43:14;;;;;;;4.80;2.87;;;3.00;99.60;;;;;;5012591;28;20716;-74
2022/01/05 03:45:40;;;;;;;12.70;2.70;;;3.00;99.50;;;;;;5014309;28;20398;-73
2022/01/05 03:48:09;;;;;;;8.87;2.80;;;3.00;99.60;;;;;;5014187;28;20837;-74
2022/01/05 03:50:35;;;;;;;8.30;2.97;;;2.90;99.50;;;;;;5012418;28;20982;-74
2022/01/05 03:53:03;;;;;;;8.73;2.77;;;2.90;99.60;;;;;;5029130;28;20761;-74
2022/01/05 03:55:29;;;;;;;8.00;3.20;;;2.90;99.60;;;;;;5012395;28;20409;-74
2022/01/05 03:57:54;;;;;;;6.77;3.10;;;2.90;99.50;;;;;;5014172;28;20895;-75
2022/01/05 04:00:24;;;;;;;9.33;3.50;;;2.90;99.50;;;;;;5016162;28;20219;-74
2022/01/05 04:02:50;;;;;;;9.57;3.17;;;2.90;99.60;;;;;;5015750;28;20176;-75
2022/01/05 04:05:16;;;;;;;8.63;3.23;;;2.90;99.70;;;;;;5015685;28;20445;-74
2022/01/05 04:07:42;;;;;;;7.80;2.77;;;2.90;99.60;;;;;;5014957;28;20480;-74
2022/01/05 04:10:08;;;;;;;5.53;3.20;;;2.80;99.60;;;;;;5017127;28;20399;-74
2022/01/05 04:12:34;;;;;;;14.03;4.07;;;2.80;99.50;;;;;;5014301;28;20414;-74
2022/01/05 04:14:59;;;;;;;10.67;2.77;;;2.80;99.50;;;;;;5014758;28;20429;-75
2022/01/05 04:17:25;;;;;;;12.03;2.93;;;2.70;99.50;;;;;;5013743;28;20170;-75
2022/01/05 04:19:51;;;;;;;10.83;4.00;;;2.70;99.70;;;;;;5013864;28;20426;-75
2022/01/05 04:22:16;;;;;;;7.37;2.90;;;2.70;99.60;;;;;;5014780;28;20266;-75
2022/01/05 04:24:42;;;;;;;6.10;2.33;;;2.70;99.50;;;;;;5013165;28;20179;-75
2022/01/05 04:27:08;;;;;;;4.57;2.10;;;2.70;99.40;;;;;;5016189;28;20692;-75
2022/01/05 04:29:34;;;;;;;5.77;2.47;;;2.70;99.40;;;;;;5033384;28;20934;-72
2022/01/05 04:32:00;;;;;;;9.60;2.77;;;2.70;99.40;;;;;;5016538;28;20599;-75
2022/01/05 04:34:26;;;;;;;12.03;3.13;;;2.70;99.00;;;;;;5033052;28;20198;-73
2022/01/05 04:36:52;;;;;;;8.97;2.70;;;2.60;98.80;;;;;;5017083;28;20460;-73
2022/01/05 04:39:18;;;;;;;9.40;2.07;;;2.60;98.70;;;;;;5017553;28;20947;-74
2022/01/05 04:41:43;;;;;;;11.43;2.80;;;2.60;98.50;;;;;;5015908;28;20277;-75
2022/01/05 04:44:09;;;;;;;6.93;2.30;;;2.60;98.60;;;;;;5017290;28;20221;-74
2022/01/05 04:46:35;;;;;;;12.10;3.10;;;2.60;98.60;;;;;;5017899;28;20679;-74
2022/01/05 04:49:01;;;;;;;13.00;3.00;;;2.60;98.60;;;;;;5015579;28;20195;-74
2022/01/05 04:51:26;;;;;;;6.90;2.93;;;2.50;98.60;;;;;;5017628;28;20171;-73
2022/01/05 04:53:52;;;;;;;7.90;2.70;;;2.50;98.40;;;;;;5016856;28;20413;-74
2022/01/05 04:56:18;;;;;;;5.50;2.60;;;2.50;98.40;;;;;;5015393;28;20213;-75
2022/01/05 04:58:44;;;;;;;10.70;2.83;;;2.50;98.40;;;;;;5015922;28;20276;-74
2022/01/05 05:01:09;;;;;;;5.47;2.70;;;2.40;98.30;;;;;;5017667;28;20418;-74
2022/01/05 05:03:35;;;;;;;8.80;3.20;;;2.40;98.30;;;;;;5016441;28;20202;-74
2022/01/05 05:06:00;;;;;;;13.70;2.87;;;2.40;98.50;;;;;;5017917;28;20537;-74
2022/01/05 05:08:26;;;;;;;17.60;3.50;;;2.40;98.20;;;;;;5017944;28;20563;-75
2022/01/05 05:10:52;;;;;;;5.23;2.80;;;2.40;98.20;;;;;;5019366;28;20246;-74
2022/01/05 05:13:17;;;;;;;9.07;2.83;;;2.30;98.10;;;;;;5024407;28;20155;-74
2022/01/05 05:15:43;;;;;;;6.57;3.23;;;2.30;98.10;;;;;;5017336;28;20586;-74
2022/01/05 05:18:09;;;;;;;8.00;2.70;;;2.30;98.10;;;;;;5013948;28;20646;-74
2022/01/05 05:20:34;;;;;;;7.73;3.27;;;2.30;98.00;;;;;;5016127;28;20598;-74
2022/01/05 05:23:01;;;;;;;12.00;3.87;;;2.30;98.10;;;;;;5016863;28;20541;-74
2022/01/05 05:25:27;;;;;;;8.40;3.23;;;2.30;98.30;;;;;;5016956;28;20167;-73
2022/01/05 05:27:53;;;;;;;9.53;3.70;;;2.30;98.30;;;;;;5016588;28;20485;-73
2022/01/05 05:30:19;;;;;;;9.90;4.03;;;2.20;98.20;;;;;;5016097;28;20402;-73
2022/01/05 05:32:44;;;;;;;10.50;3.53;;;2.20;98.20;;;;;;5016831;28;20254;-74
2022/01/05 05:35:10;;;;;;;6.70;2.10;;;2.20;98.30;;;;;;5015540;28;20927;-73
2022/01/05 05:37:36;;;;;;;8.90;2.97;;;2.20;98.20;;;;;;5015987;28;20488;-74
2022/01/05 05:40:03;;;;;;;11.23;3.33;;;2.20;98.20;;;;;;5016078;28;20177;-75
2022/01/05 05:42:29;;;;;;;7.00;3.00;;;2.10;98.20;;;;;;5016027;28;20163;-74
2022/01/05 05:44:54;;;;;;;11.43;2.80;;;2.10;98.20;;;;;;5015609;28;20417;-74
2022/01/05 05:47:20;;;;;;;11.27;3.00;;;2.10;98.20;;;;;;5014590;28;20235;-74
2022/01/05 05:49:46;;;;;;;6.20;2.37;;;2.10;98.20;;;;;;5015852;28;20281;-74
2022/01/05 05:52:12;;;;;;;8.83;2.30;;;2.10;98.20;;;;;;5015701;28;20167;-75
2022/01/05 05:54:38;;;;;;;6.70;2.50;;;2.10;98.30;;;;;;5015870;28;20163;-75
2022/01/05 05:57:04;;;;;;;5.90;2.70;;;2.10;98.40;;;;;;5014833;28;20572;-74
2022/01/05 05:59:30;;;;;;;8.17;2.57;;;2.10;98.30;;;;;;5030351;28;20187;-75
2022/01/05 06:01:56;;;;;;;6.20;2.40;;;2.10;98.20;;;;;;5014934;28;20760;-74
2022/01/05 06:04:21;;;;;;;6.97;2.40;;;2.10;98.10;;;;;;5015424;28;20562;-74
2022/01/05 06:06:47;;;;;;;9.40;2.27;;;2.00;97.80;;;;;;5015712;28;20174;-74
2022/01/05 06:09:13;;;;;;;5.10;2.30;;;2.10;97.90;;;;;;5014328;28;20197;-74
2022/01/05 06:11:38;;;;;;;6.60;1.90;;;2.10;97.90;;;;;;5016702;28;20213;-75
2022/01/05 06:14:04;;;;;;;15.57;3.47;;;2.00;97.60;;;;;;5013907;28;20182;-74
2022/01/05 06:16:30;;;;;;;8.50;2.17;;;2.00;97.60;;;;;;5014696;28;20163;-76
2022/01/05 06:18:55;;;;;;;10.67;2.63;;;2.00;97.50;;;;;;5033778;23;20258;-74
2022/01/05 06:21:21;;;;;;;10.03;2.10;;;2.10;97.30;;;;;;5012753;28;20217;-74
2022/01/05 06:23:46;;;;;;;9.47;2.77;;;2.20;96.80;;;;;;5013090;28;20167;-75
2022/01/05 06:26:12;;;;;;;5.37;2.00;;;2.30;96.60;;;;;;5012440;28;20629;-74
2022/01/05 06:28:38;;;;;;;6.30;1.57;;;2.30;96.30;;;;;;5012749;28;20699;-74
2022/01/05 06:31:04;;;;;;;8.90;2.33;;;2.40;96.50;;;;;;5013693;28;20183;-74
2022/01/05 06:33:29;;;;;;;11.10;3.20;;;2.50;96.30;;;;;;5032557;28;20172;-74
2022/01/05 06:35:55;;;;;;;5.13;1.50;;;2.60;96.00;;;;;;5032472;28;20174;-74
2022/01/05 06:38:21;;;;;;;11.83;2.20;;;2.60;95.60;;;;;;5014747;28;20203;-74
2022/01/05 06:40:46;;;;;;;7.57;2.20;;;2.60;95.40;;;;;;5041254;28;20167;-74
2022/01/05 06:43:13;;;;;;;5.13;2.83;;;2.70;95.50;;;;;;5031145;28;20253;-75
2022/01/05 06:45:40;;;;;;;6.00;2.20;;;2.70;95.10;;;;;;5044829;28;20181;-75
2022/01/05 06:48:05;;;;;;;9.97;1.90;;;2.80;95.10;;;;;;5014625;28;20482;-75
2022/01/05 06:50:31;;;;;;;10.03;2.27;;;2.80;95.30;;;;;;5031575;28;20499;-75
2022/01/05 06:52:57;;;;;;;11.27;2.90;;;2.80;94.90;;;;;;5014071;28;20518;-75
2022/01/05 06:55:23;;;;;;;8.93;3.83;;;2.90;94.30;;;;;;5027456;28;20175;-74
2022/01/05 06:57:51;;;;;;;15.97;2.90;;;2.90;94.10;;;;;;4994456;28;20199;-76
2022/01/05 07:00:18;;;;;;;10.57;2.10;;;2.90;94.10;;;;;;5011917;28;20500;-74
2022/01/05 07:02:44;;;;;;;7.67;3.07;;;3.00;94.30;;;;;;5011382;28;20702;-75
2022/01/05 07:05:10;;;;;;;11.77;2.23;;;3.00;93.80;;;;;;4977922;28;20432;-74
2022/01/05 07:07:37;;;;;;;8.00;2.20;;;3.00;93.70;;;;;;4994181;28;20480;-76
2022/01/05 07:10:08;;;;;;;13.00;2.70;;;3.00;93.50;;;;;;5024981;28;20813;-74
2022/01/05 07:12:34;;;;;;;11.63;2.67;;;3.10;93.60;;;;;;5031568;28;20496;-75
2022/01/05 07:15:00;;;;;;;5.60;1.73;;;3.10;93.90;;;;;;5031013;28;20504;-75
2022/01/05 07:17:26;;;;;;;7.20;2.40;;;3.10;93.80;;;;;;5006292;28;20571;-75
2022/01/05 07:19:51;;;;;;;6.73;3.00;;;3.20;93.50;;;;;;5030723;28;20214;-75
2022/01/05 07:22:17;;;;;;;6.73;2.37;;;3.20;93.60;;;;;;5011814;28;20242;-75
2022/01/05 07:24:43;;;;;;;12.90;3.77;;;3.20;93.10;;;;;;5028579;28;20174;-75
2022/01/05 07:27:08;;;;;;;8.63;1.87;;;3.20;93.30;;;;;;5031675;28;20473;-75
2022/01/05 07:29:34;;;;;;;6.37;2.37;;;3.20;93.30;;;;;;5013610;28;20232;-76
2022/01/05 07:32:00;;;;;;;6.13;2.70;;;3.20;93.20;;;;;;5031435;28;20170;-75
2022/01/05 07:34:26;;;;;;;17.30;3.20;;;3.20;93.20;;;;;;5030971;28;20166;-75
2022/01/05 07:36:51;;;;;;;11.33;2.43;;;3.20;93.00;;;;;;5030652;28;20660;-74
2022/01/05 07:39:17;;;;;;;10.73;3.43;;;3.10;93.20;;;;;;5030267;28;20187;-75
2022/01/05 07:41:43;;;;;;;14.97;2.90;;;3.20;93.00;;;;;;4993554;28;20167;-74
2022/01/05 07:44:08;;;;;;;13.30;2.87;;;3.20;93.10;;;;;;5011763;28;20178;-74
2022/01/05 07:46:34;;;;;;;11.77;3.47;;;3.30;93.20;;;;;;5011868;28;20177;-74
2022/01/05 07:49:02;;;;;;;9.23;3.40;;;3.30;93.20;;;;;;5012879;28;20289;-74
2022/01/05 07:51:29;;;;;;;8.83;3.00;;;3.30;93.30;;;;;;5030927;28;20432;-75
2022/01/05 07:53:55;;;;;;;8.17;2.60;;;3.30;92.80;;;;;;5030727;28;20502;-75
2022/01/05 07:56:20;;;;;;;8.30;3.13;;;3.30;93.00;;;;;;5012440;28;20449;-75
2022/01/05 07:58:47;;;;;;;14.73;3.33;;;3.30;93.00;;;;;;5030749;28;20551;-74
2022/01/05 08:01:15;;;;;;;4.23;2.17;;;3.40;93.10;;;;;;5030836;28;20258;-75
2022/01/05 08:03:40;;;;;;;15.10;3.53;;;3.40;93.00;;;;;;5030230;28;20413;-76
2022/01/05 08:06:06;;;;;;;11.67;3.43;;;3.40;93.00;;;;;;5013005;28;20930;-75
2022/01/05 08:08:32;;;;;;;13.73;3.07;;;3.50;92.90;;;;;;5027537;28;20515;-74
2022/01/05 08:10:57;;;;;;;13.70;3.13;;;3.50;92.80;;;;;;5028414;28;20182;-74
2022/01/05 08:13:24;;;;;;;10.53;2.30;;;3.50;92.70;;;;;;5030254;28;20193;-76
2022/01/05 08:15:54;;;;;;;18.83;4.37;;;3.50;92.50;;;;;;5012368;28;20178;-75
2022/01/05 08:18:20;;;;;;;10.57;3.47;;;3.60;92.70;;;;;;5013153;28;20468;-75
2022/01/05 08:20:46;;;;;;;6.40;2.60;;;3.60;92.50;;;;;;5011165;28;20452;-75
2022/01/05 08:23:20;;;;;;;7.90;3.13;;;3.70;92.40;;;;;;5027010;28;20429;-76
2022/01/05 08:25:46;;;;;;;10.30;3.60;;;3.70;92.80;;;;;;5018647;28;20476;-75
2022/01/05 08:28:12;;;;;;;9.73;3.87;;;3.70;92.10;;;;;;5011500;28;20487;-75
2022/01/05 08:30:39;;;;;;;11.67;2.87;;;3.70;92.10;;;;;;5031165;28;20432;-76
2022/01/05 08:33:07;;;;;;;9.00;3.90;;;3.80;92.30;;;;;;5030095;28;20190;-75
2022/01/05 08:35:33;;;;;;;7.70;3.20;;;3.80;92.40;;;;;;5011498;28;20738;-75
2022/01/05 08:37:59;;;;;;;11.77;3.80;;;3.80;92.30;;;;;;5028755;28;20471;-74
2022/01/05 08:40:26;;;;;;;12.10;3.93;;;3.90;92.30;;;;;;5026126;28;20787;-74
2022/01/05 08:42:53;;;;;;;13.57;2.70;;;4.00;92.30;;;;;;5009266;28;20425;-76
2022/01/05 08:45:20;;;;;;;12.60;3.23;;;4.10;91.80;;;;;;5011353;28;20444;-76
2022/01/05 08:47:48;;;;;;;10.03;3.33;;;4.10;91.50;;;;;;5032554;28;20413;-75
2022/01/05 08:50:16;;;;;;;20.23;3.27;;;4.00;91.60;;;;;;5031125;28;20551;-76
2022/01/05 08:52:42;;;;;;;7.60;2.67;;;4.10;91.30;;;;;;5031499;28;20440;-75
2022/01/05 08:55:08;;;;;;;10.50;2.93;;;4.10;91.30;;;;;;5032536;28;20459;-75
2022/01/05 08:57:34;;;;;;;21.43;3.07;;;4.00;91.20;;;;;;5030932;28;20632;-75
2022/01/05 08:59:59;;;;;;;9.67;3.43;;;4.10;91.30;;;;;;5032248;28;20449;-75
2022/01/05 09:02:25;;;;;;;11.73;3.17;;;4.10;91.20;;;;;;5012267;28;20451;-75
2022/01/05 09:04:52;;;;;;;6.33;2.50;;;4.10;91.30;;;;;;5012639;28;20174;-75
2022/01/05 09:07:18;;;;;;;8.27;3.00;;;4.10;91.20;;;;;;5029920;28;20190;-74
2022/01/05 09:09:44;;;;;;;14.63;3.03;;;4.20;91.10;;;;;;5010480;28;20445;-75
2022/01/05 09:12:10;;;;;;;6.57;2.90;;;4.20;91.00;;;;;;5030512;28;20952;-75
2022/01/05 09:14:36;;;;;;;11.03;4.23;;;4.20;90.90;;;;;;5033552;28;20171;-76
2022/01/05 09:17:02;;;;;;;8.63;3.20;;;4.20;90.80;;;;;;5015672;28;21032;-75
2022/01/05 09:19:28;;;;;;;21.57;4.20;;;4.20;90.90;;;;;;5015422;28;20205;-74
2022/01/05 09:21:54;;;;;;;13.80;3.50;;;4.20;90.80;;;;;;5016564;28;20791;-75
2022/01/05 09:24:20;;;;;;;7.80;2.30;;;4.20;91.00;;;;;;5015865;28;20417;-75
2022/01/05 09:26:46;;;;;;;7.70;3.13;;;4.20;91.00;;;;;;5033044;28;20980;-77
2022/01/05 09:29:11;;;;;;;8.07;3.20;;;4.20;91.00;;;;;;5033662;28;20191;-75
2022/01/05 09:31:37;;;;;;;8.90;2.57;;;4.30;91.00;;;;;;5030839;28;20174;-74
2022/01/05 09:34:04;;;;;;;11.73;3.40;;;4.30;90.70;;;;;;5032537;28;20165;-75
2022/01/05 09:36:34;;;;;;;15.10;4.10;;;4.40;90.70;;;;;;5031754;28;20174;-76
2022/01/05 09:41:56;;;;;;;6.27;3.13;;;4.40;90.40;;;;;;5032872;28;20409;-75
2022/01/05 09:44:42;;;;;;;4.40;2.17;;;4.40;90.40;;;;;;5032685;28;20424;-75
2022/01/05 09:47:07;;;;;;;6.50;2.07;;;4.60;90.30;;;;;;5030954;28;20837;-75
2022/01/05 09:53:34;;;;;;;8.63;3.30;;;4.80;88.70;;;;;;5049758;28;20249;-91
2022/01/05 09:57:14;;;;;;;8.97;2.43;;;4.80;88.30;;;;;;5014580;28;20422;-90
2022/01/05 09:59:40;;;;;;;8.43;3.40;;;4.80;88.20;;;;;;5043288;23;20497;-83
2022/01/05 10:02:07;;;;;;;7.20;2.73;;;4.90;88.70;;;;;;5012245;28;20521;-86
2022/01/05 10:04:36;;;;;;;6.50;2.97;;;5.00;87.10;;;;;;5015648;28;20437;-85
2022/01/05 10:07:03;;;;;;;6.07;2.27;;;5.00;86.80;;;;;;5030249;28;20500;-86
2022/01/05 10:09:28;;;;;;;10.23;3.20;;;5.00;87.00;;;;;;5004404;28;20442;-85
2022/01/05 10:11:54;;;;;;;13.73;2.80;;;4.90;87.10;;;;;;5006173;28;20427;-84
2022/01/05 10:14:20;;;;;;;9.50;2.43;;;4.90;87.90;;;;;;5067472;23;20216;-75
2022/01/05 10:17:03;;;;;;;6.70;2.83;;;4.90;88.30;;;;;;5037733;28;20674;-75
2022/01/05 10:19:29;;;;;;;5.43;2.30;;;5.00;88.00;;;;;;5051827;28;20658;-74
2022/01/05 10:21:56;;;;;;;11.03;3.40;;;5.10;88.00;;;;;;5040970;28;20420;-74
2022/01/05 10:24:43;;;;;;;8.17;2.33;;;5.20;87.50;;;;;;5056011;28;20422;-75
2022/01/05 10:27:15;;;;;;;5.93;2.30;;;5.30;86.60;;;;;;5089338;23;20594;-83
2022/01/05 10:29:55;;;;;;;12.33;2.70;;;5.40;87.10;;;;;;5040530;28;20408;-85
2022/01/05 10:32:22;;;;;;;12.53;2.77;;;5.50;86.30;;;;;;5062045;28;20542;-84
2022/01/05 10:35:10;;;;;;;6.53;2.57;;;5.60;85.60;;;;;;5063651;28;20474;-84
2022/01/05 10:37:41;;;;;;;9.10;2.80;;;5.60;85.40;;;;;;5041941;28;20460;-84
2022/01/05 10:40:20;;;;;;;11.40;2.93;;;5.60;85.90;;;;;;5061622;28;20424;-85
2022/01/05 10:43:05;;;;;;;6.40;2.60;;;5.60;85.90;;;;;;5058278;28;20989;-85
2022/01/05 10:45:44;;;;;;;11.63;2.93;;;5.50;86.50;;;;;;5048434;28;20450;-86
2022/01/05 10:48:16;;;;;;;10.80;2.90;;;5.50;86.30;;;;;;5070450;28;20424;-86
2022/01/05 10:50:43;;;;;;;9.43;2.90;;;5.40;86.90;;;;;;5058176;28;20424;-85
2022/01/05 10:53:13;;;;;;;7.40;2.33;;;5.40;87.30;;;;;;5055464;28;20447;-85
2022/01/05 10:55:42;;;;;;;10.10;2.97;;;5.40;87.40;;;;;;5071482;28;20541;-84
2022/01/05 10:58:17;;;;;;;12.00;3.40;;;5.40;87.40;;;;;;5076625;28;20471;-83
2022/01/05 11:00:45;;;;;;;6.00;2.30;;;5.40;87.90;;;;;;5076300;28;20412;-83
2022/01/05 11:03:35;;;;;;;7.37;2.77;;;5.50;87.50;;;;;;5072602;28;20436;-83
2022/01/05 11:06:03;;;;;;;15.67;3.10;;;5.60;87.30;;;;;;5053852;28;20420;-86
2022/01/05 11:08:31;;;;;;;12.23;3.13;;;5.80;86.90;;;;;;5044707;28;20431;-85
2022/01/05 11:10:56;;;;;;;8.60;3.10;;;5.90;85.00;;;;;;5062684;28;20511;-84
2022/01/05 11:13:22;;;;;;;6.83;3.00;;;5.90;85.90;;;;;;5056782;28;20962;-83
2022/01/05 11:15:56;;;;;;;12.37;3.07;;;6.00;86.20;;;;;;5063431;28;20188;-84
2022/01/05 11:18:22;;;;;;;11.20;3.33;;;6.00;84.70;;;;;;5061194;28;20584;-83
2022/01/05 11:20:55;;;;;;;6.77;2.83;;;6.10;85.60;;;;;;5061653;28;20484;-84
2022/01/05 11:23:26;;;;;;;9.53;3.60;;;6.10;84.20;;;;;;5062504;28;20186;-87
2022/01/05 11:25:58;;;;;;;9.13;3.30;;;6.10;84.20;;;;;;5063070;28;20435;-85
2022/01/05 11:28:26;;;;;;;10.73;2.90;;;6.10;83.40;;;;;;5043997;28;20437;-87
2022/01/05 11:30:54;;;;;;;9.23;3.00;;;6.10;84.20;;;;;;5042103;28;20477;-85
2022/01/05 11:33:21;;;;;;;7.47;2.60;;;6.10;84.80;;;;;;5049413;28;20497;-85
2022/01/05 11:35:48;;;;;;;12.50;3.13;;;6.00;84.40;;;;;;5059973;28;20439;-84
2022/01/05 11:38:14;;;;;;;16.63;3.97;;;6.00;84.40;;;;;;5060194;28;20508;-87
2022/01/05 11:40:46;;;;;;;6.67;2.30;;;5.80;84.90;;;;;;5060934;28;20785;-87
2022/01/05 11:43:19;;;;;;;7.90;3.40;;;5.80;86.10;;;;;;5060939;28;20483;-85
2022/01/05 11:45:47;;;;;;;13.10;3.90;;;5.70;85.00;;;;;;5061832;28;20428;-85
2022/01/05 11:48:17;;;;;;;11.83;3.43;;;5.70;87.00;;;;;;5062824;28;20515;-87
2022/01/05 11:50:47;;;;;;;10.53;3.07;;;5.70;86.50;;;;;;5044284;28;20412;-87
2022/01/05 11:53:13;;;;;;;9.50;2.80;;;5.70;86.80;;;;;;5043948;28;20794;-87
2022/01/05 11:55:57;;;;;;;9.40;3.03;;;5.80;87.50;;;;;;5046138;28;20430;-86
2022/01/05 11:58:26;;;;;;;11.53;3.20;;;5.90;87.40;;;;;;5024291;28;20202;-89
2022/01/05 12:01:17;;;;;;;5.50;3.43;;;6.00;87.10;;;;;;5063094;28;20488;-88
2022/01/05 12:03:57;;;;;;;11.10;3.97;;;6.10;85.60;;;;;;5062697;28;20444;-86
2022/01/05 12:06:24;;;;;;;8.03;3.40;;;6.30;86.10;;;;;;5044352;28;20478;-88
2022/01/05 12:08:55;;;;;;;4.87;3.00;;;6.50;84.80;;;;;;5047097;28;20459;-86
2022/01/05 12:11:33;;;;;;;5.80;2.43;;;6.60;83.60;;;;;;5062305;28;20502;-87
2022/01/05 12:14:22;;;;;;;9.27;3.63;;;6.60;83.60;;;;;;5047596;28;20801;-92
2022/01/05 12:17:01;;;;;;;7.60;2.70;;;6.60;82.60;;;;;;5036160;28;20433;-88
2022/01/05 12:19:37;;;;;;;8.93;3.20;;;6.40;83.40;;;;;;5032955;28;20444;-88
2022/01/05 12:22:14;;;;;;;6.70;2.80;;;6.30;83.60;;;;;;5044713;28;20803;-87
2022/01/05 12:25:06;;;;;;;5.47;3.00;;;6.40;84.00;;;;;;5054982;28;20435;-93
2022/01/05 12:27:33;;;;;;;11.40;4.10;;;6.30;84.10;;;;;;5066494;28;20506;-85
2022/01/05 12:30:01;;;;;;;11.97;3.40;;;6.40;84.40;;;;;;5045851;28;20941;-86
2022/01/05 12:32:37;;;;;;;12.50;2.60;;;6.40;84.00;;;;;;5056565;28;20424;-87
2022/01/05 12:35:15;;;;;;;7.93;3.40;;;6.50;85.40;;;;;;5064539;28;20412;-89
2022/01/05 12:37:51;;;;;;;12.83;3.27;;;6.70;84.80;;;;;;5061093;28;20456;-83
2022/01/05 12:40:29;;;;;;;4.73;2.30;;;6.90;83.50;;;;;;5068716;28;20443;-90
2022/01/05 12:43:10;;;;;;;9.73;3.17;;;6.90;82.40;;;;;;5062789;23;20488;-76
2022/01/05 12:45:59;;;;;;;5.83;2.67;;;6.80;81.90;;;;;;5018632;28;20436;-76
2022/01/05 12:48:39;;;;;;;9.50;3.50;;;6.80;82.80;;;;;;5005352;28;20418;-75
2022/01/05 12:51:14;;;;;;;14.27;5.70;;;6.70;83.40;;;;;;5008266;28;20426;-78
2022/01/05 12:54:12;;;;;;;10.57;3.37;;;6.60;84.00;;;;;;5003670;28;20471;-75
2022/01/05 12:56:54;;;;;;;12.80;3.30;;;6.50;83.90;;;;;;5017535;28;20414;-75
2022/01/05 12:59:39;;;;;;;7.37;3.10;;;6.40;84.50;;;;;;5020624;28;20448;-75
2022/01/05 13:02:10;;;;;;;6.80;2.63;;;6.30;85.00;;;;;;5024394;28;20421;-75
2022/01/05 13:04:37;;;;;;;6.73;2.50;;;6.30;85.20;;;;;;5026012;28;20422;-75